First I — 3ESJ5 — position and weather

sailwx.info

Track history (hours):
 
Tides and Currents Weather Stations Pressure Air Temp Water Temp Dewpoint Dewpoint Depression Visibility Wind Speed Wind Dir Waves Ship Positions

First I

Last reported at 2014-Oct-26 06:33 UTC. Time now 2014-Oct-26 07:05 UTC.
Position N 45°32' W 122°41'.

Length 190 m; draft 6.4 m.

Type: Cargo ship. MMSI: 370317000.

Date/timePositionNaut miles runAvg speedWind from/ knotsBaromVisibWave heightAir tempDewpointWater temp
2014-Oct-26 06:33N 45°32' W 122°41'0 0.0
2014-Oct-26 05:30N 45°32' W 122°41'0 0.0
2014-Oct-26 04:33N 45°32' W 122°41'0 0.0
2014-Oct-26 03:33N 45°32' W 122°41'0 0.0
2014-Oct-26 02:30N 45°32' W 122°41'0 0.0
2014-Oct-26 01:33N 45°32' W 122°41'0 0.0
2014-Oct-26 00:24N 45°32' W 122°41'0 0.0
2014-Oct-25 23:30N 45°32' W 122°41'0 0.0
2014-Oct-25 22:33N 45°32' W 122°41'0 0.0
2014-Oct-25 21:33N 45°32' W 122°41'0 0.0
2014-Oct-25 20:30N 45°32' W 122°41'0 0.0
2014-Oct-25 19:33N 45°32' W 122°41'  
2014-Oct-22 22:19N 45°39' W 122°46'2 0.1
2014-Oct-22 09:26N 45°38' W 122°44'47 8.0
2014-Oct-22 03:33N 46°15' W 123°27'1010.2
2014-Oct-22 02:33N 46°15' W 123°41'5 4.6
2014-Oct-22 01:31N 46°12' W 123°47'0 0.0
2014-Oct-22 00:31N 46°12' W 123°47'0 0.0
2014-Oct-21 23:31N 46°12' W 123°47'0 0.0
2014-Oct-21 22:31N 46°12' W 123°47'0 0.1
2014-Oct-21 21:31N 46°12' W 123°47'0 0.2
2014-Oct-21 20:31N 46°13' W 123°47'0 0.0
2014-Oct-21 19:31N 46°13' W 123°47'0 0.0
2014-Oct-21 18:31N 46°13' W 123°47'0 0.0
2014-Oct-21 17:31N 46°12' W 123°47'0 0.1
2014-Oct-21 16:31N 46°13' W 123°47'1 1.0
2014-Oct-21 15:33N 46°12' W 123°48'1010.4
2014-Oct-21 14:33N 46°15' W 124°02'1111.3
2014-Oct-21 13:33N 46°11' W 124°18'6 4.8
2014-Oct-21 12:17N 46°14' W 124°25'2 2.6
2014-Oct-21 11:33N 46°15' W 124°27'  
Track history (hours):
 
Tides and Currents Weather Stations Pressure Air Temp Water Temp Dewpoint Dewpoint Depression Visibility Wind Speed Wind Dir Waves Ship Positions

First I

Last reported at 2014-Oct-26 06:33 UTC. Time now 2014-Oct-26 07:05 UTC.
Position N 45°32' W 122°41'.

Length 190 m; draft 6.4 m.

Type: Cargo ship. MMSI: 370317000.

Date/timePositionNaut miles runAvg speedWind from/ knotsBaromVisibWave heightAir tempDewpointWater temp
2014-Oct-26 06:33N 45°32' W 122°41'0 0.0
2014-Oct-26 05:30N 45°32' W 122°41'0 0.0
2014-Oct-26 04:33N 45°32' W 122°41'0 0.0
2014-Oct-26 03:33N 45°32' W 122°41'0 0.0
2014-Oct-26 02:30N 45°32' W 122°41'0 0.0
2014-Oct-26 01:33N 45°32' W 122°41'0 0.0
2014-Oct-26 00:24N 45°32' W 122°41'0 0.0
2014-Oct-25 23:30N 45°32' W 122°41'0 0.0
2014-Oct-25 22:33N 45°32' W 122°41'0 0.0
2014-Oct-25 21:33N 45°32' W 122°41'0 0.0
2014-Oct-25 20:30N 45°32' W 122°41'0 0.0
2014-Oct-25 19:33N 45°32' W 122°41'  
2014-Oct-22 22:19N 45°39' W 122°46'2 0.1
2014-Oct-22 09:26N 45°38' W 122°44'47 8.0
2014-Oct-22 03:33N 46°15' W 123°27'1010.2
2014-Oct-22 02:33N 46°15' W 123°41'5 4.6
2014-Oct-22 01:31N 46°12' W 123°47'0 0.0
2014-Oct-22 00:31N 46°12' W 123°47'0 0.0
2014-Oct-21 23:31N 46°12' W 123°47'0 0.0
2014-Oct-21 22:31N 46°12' W 123°47'0 0.1
2014-Oct-21 21:31N 46°12' W 123°47'0 0.2
2014-Oct-21 20:31N 46°13' W 123°47'0 0.0
2014-Oct-21 19:31N 46°13' W 123°47'0 0.0
2014-Oct-21 18:31N 46°13' W 123°47'0 0.0
2014-Oct-21 17:31N 46°12' W 123°47'0 0.1
2014-Oct-21 16:31N 46°13' W 123°47'1 1.0
2014-Oct-21 15:33N 46°12' W 123°48'1010.4
2014-Oct-21 14:33N 46°15' W 124°02'1111.3
2014-Oct-21 13:33N 46°11' W 124°18'6 4.8
2014-Oct-21 12:17N 46°14' W 124°25'2 2.6
2014-Oct-21 11:33N 46°15' W 124°27'  

Dump ship's entire track history